Time;durP1;ratioP1;P1;durP2;ratioP2;P2;SDS_P1;SDS_P2;PMS_P1;PMS_P2;Temp;Humidity;BMP_temperature;BMP_pressure;BME280_temperature;BME280_humidity;BME280_pressure;Samples;Min_cycle;Max_cycle;Signal;HPM_P1;HPM_P2
2022/08/04 00:02:07;;;;;;;7.30;3.25;;;;;;;-144.47;36.90;53007.03;5049626;28;20486;-70
2022/08/04 00:04:54;;;;;;;8.77;3.53;;;;;;;-144.47;38.14;52967.31;5049752;28;20088;-74
2022/08/04 00:07:38;;;;;;;8.57;3.28;;;;;;;-144.47;39.21;52983.22;5049794;28;20024;-72
2022/08/04 00:10:06;;;;;;;6.95;3.70;;;;;;;-144.47;39.86;53007.03;5031601;28;20028;-74
2022/08/04 00:12:35;;;;;;;7.28;3.55;;;;;;;-144.47;40.66;53030.88;5047388;28;20028;-72
2022/08/04 00:15:04;;;;;;;8.20;3.92;;;;;;;-144.47;41.33;53046.75;5035370;28;20017;-71
2022/08/04 00:17:53;;;;;;;11.23;4.63;;;;;;;-144.47;41.75;53024.91;5052102;28;20025;-73
2022/08/04 00:20:20;;;;;;;13.18;4.03;;;;;;;-144.47;41.95;53022.94;5053808;28;20029;-72
2022/08/04 00:22:47;;;;;;;13.40;4.10;;;;;;;-144.47;42.07;53009.03;5052373;28;20025;-72
2022/08/04 00:25:12;;;;;;;11.68;4.03;;;;;;;-144.47;42.67;53018.97;5052728;28;20025;-71
2022/08/04 00:27:38;;;;;;;8.85;3.88;;;;;;;-144.47;42.62;53013.00;5052312;28;20501;-73
2022/08/04 00:30:05;;;;;;;9.02;4.10;;;;;;;-144.47;42.76;53056.69;5052679;28;20025;-72
2022/08/04 00:32:31;;;;;;;9.82;4.20;;;;;;;-144.47;43.01;53030.88;5049274;28;20030;-72
2022/08/04 00:34:58;;;;;;;9.70;4.30;;;;;;;-144.47;42.81;53015.00;5052712;28;20148;-73
2022/08/04 00:37:25;;;;;;;11.85;5.13;;;;;;;-144.47;42.76;53046.75;5051063;28;20021;-73
2022/08/04 00:39:53;;;;;;;10.15;5.30;;;;;;;-144.47;43.31;53009.03;5034364;28;20053;-73
2022/08/04 00:42:46;;;;;;;8.60;4.78;;;;;;;-144.47;43.39;53036.84;5052638;28;20074;-72
2022/08/04 00:45:12;;;;;;;9.18;4.85;;;;;;;-144.47;43.51;53022.94;5052635;28;20049;-73
2022/08/04 00:48:05;;;;;;;11.93;6.13;;;;;;;-144.47;43.66;53026.91;5052125;28;20051;-73
2022/08/04 00:50:44;;;;;;;10.45;4.25;;;;;;;-144.47;43.06;53068.63;5052512;28;20028;-73
2022/08/04 00:53:27;;;;;;;10.57;3.95;;;;;;;-144.47;42.62;53038.81;5051508;28;20017;-75
2022/08/04 00:55:52;;;;;;;11.15;4.45;;;;;;;-144.47;42.74;53046.75;5052130;28;20025;-75
2022/08/04 00:58:31;;;;;;;7.63;4.15;;;;;;;-144.47;42.60;53015.00;5052155;28;20139;-76
2022/08/04 01:01:01;;;;;;;6.38;3.40;;;;;;;-144.47;41.76;53005.06;5052830;28;20048;-75
2022/08/04 01:03:55;;;;;;;9.68;3.08;;;;;;;-144.47;41.43;53044.78;5034434;28;20061;-74
2022/08/04 01:06:42;;;;;;;7.22;3.40;;;;;;;-144.47;40.67;53060.66;5034022;28;20040;-74
2022/08/04 01:09:52;;;;;;;7.85;3.00;;;;;;;-144.47;40.83;53015.00;5051384;28;20028;-76
2022/08/04 01:12:40;;;;;;;8.50;3.33;;;;;;;-144.47;40.64;53016.97;5011155;28;20040;-73
2022/08/04 01:15:06;;;;;;;;;;;;;;;-144.47;40.68;53026.91;5052526;28;20017;-72
2022/08/04 01:17:34;;;;;;;10.43;4.30;;;;;;;-144.47;40.43;53042.78;5050946;28;19951;-72
2022/08/04 01:20:10;;;;;;;13.88;4.13;;;;;;;-144.47;40.77;53042.78;5051766;28;20029;-71
2022/08/04 01:22:54;;;;;;;7.75;3.40;;;;;;;-144.47;40.67;53076.56;5050924;28;20029;-71
2022/08/04 01:25:43;;;;;;;8.43;3.72;;;;;;;-144.47;41.00;53011.00;5051839;28;20025;-71
2022/08/04 01:28:27;;;;;;;15.63;3.20;;;;;;;-144.47;40.78;53040.81;5041199;28;20032;-72
2022/08/04 01:30:57;;;;;;;8.93;3.60;;;;;;;-144.47;41.09;53016.97;5052241;28;20028;-71
2022/08/04 01:33:28;;;;;;;4.90;2.47;;;;;;;-144.47;41.10;53030.88;5051627;28;20008;-71
2022/08/04 01:35:55;;;;;;;7.15;3.20;;;;;;;-144.47;41.13;53034.84;5057557;22;20490;-66
2022/08/04 01:38:28;;;;;;;9.93;3.17;;;;;;;-144.47;40.99;52997.09;5069179;28;20401;-65
2022/08/04 01:41:03;;;;;;;4.80;2.70;;;;;;;-144.47;40.96;53028.88;5071425;28;20020;-65
2022/08/04 01:43:31;;;;;;;6.13;3.20;;;;;;;-144.47;41.25;53026.91;5051229;28;20055;-67
2022/08/04 01:45:58;;;;;;;5.53;2.97;;;;;;;-144.47;41.35;53044.78;5054239;28;20036;-67
2022/08/04 01:48:25;;;;;;;9.82;2.85;;;;;;;-144.47;41.48;53020.94;5070048;28;20091;-67
2022/08/04 01:51:08;;;;;;;4.70;2.65;;;;;;;-144.47;41.67;53022.94;5072427;28;20490;-66
2022/08/04 01:53:36;;;;;;;4.80;2.55;;;;;;;-144.47;41.88;53028.88;5069355;28;20047;-66
2022/08/04 01:56:03;;;;;;;6.28;2.53;;;;;;;-144.47;42.43;53018.97;5063462;28;20074;-67
2022/08/04 01:58:31;;;;;;;10.77;2.63;;;;;;;-144.47;43.12;53036.84;5068840;28;20032;-68
2022/08/04 02:01:01;;;;;;;8.52;2.78;;;;;;;-144.47;44.01;53048.75;5071777;28;20413;-68
2022/08/04 02:03:27;;;;;;;5.18;2.60;;;;;;;-144.47;44.76;53038.81;5071849;28;20107;-66
2022/08/04 02:06:03;;;;;;;8.40;3.00;;;;;;;-144.47;45.36;53038.81;5071307;28;20024;-67
2022/08/04 02:08:45;;;;;;;6.30;2.67;;;;;;;-144.47;45.80;53056.69;5069136;28;20109;-66
2022/08/04 02:11:16;;;;;;;7.38;2.95;;;;;;;-144.47;46.29;53064.66;5070992;28;20466;-65
2022/08/04 02:13:57;;;;;;;7.63;2.70;;;;;;;-144.47;46.46;53064.66;5070832;28;20071;-65
2022/08/04 02:16:22;;;;;;;6.72;2.58;;;;;;;-144.47;46.70;53064.66;5070561;28;20023;-66
2022/08/04 02:19:01;;;;;;;8.88;2.80;;;;;;;-144.47;46.87;53040.81;5070597;28;20099;-68
2022/08/04 02:21:30;;;;;;;6.63;2.92;;;;;;;-144.47;47.09;53036.84;5071525;28;20038;-68
2022/08/04 02:24:07;;;;;;;8.27;4.00;;;;;;;-144.47;47.12;53042.78;5070061;28;20035;-68
2022/08/04 02:26:35;;;;;;;4.60;2.40;;;;;;;-144.47;47.17;53090.47;5070314;28;20037;-68
2022/08/04 02:29:00;;;;;;;9.10;3.17;;;;;;;-144.47;47.39;53046.75;5070237;28;20356;-68
2022/08/04 02:31:29;;;;;;;6.25;3.00;;;;;;;-144.47;47.59;53066.63;5070322;28;20553;-67
2022/08/04 02:34:01;;;;;;;6.15;3.72;;;;;;;-144.47;47.73;53072.59;5077090;28;20070;-66
2022/08/04 02:36:35;;;;;;;6.60;2.90;;;;;;;-144.47;47.71;53052.72;5069538;28;20029;-65
2022/08/04 02:39:02;;;;;;;7.55;3.25;;;;;;;-144.47;47.80;53046.75;5069491;28;20024;-64
2022/08/04 02:41:29;;;;;;;9.23;3.28;;;;;;;-144.47;47.93;53056.69;5070723;28;20046;-64
2022/08/04 02:44:06;;;;;;;8.30;3.20;;;;;;;-144.47;48.02;53060.66;5069741;28;20028;-66
2022/08/04 02:46:34;;;;;;;10.73;3.15;;;;;;;-144.47;48.03;53046.75;5069676;28;20035;-65
2022/08/04 02:49:04;;;;;;;16.75;3.00;;;;;;;-144.47;48.24;53062.66;5070179;28;20036;-64
2022/08/04 02:51:35;;;;;;;13.20;3.38;;;;;;;-144.47;48.27;53050.75;5070002;28;20032;-64
2022/08/04 02:54:03;;;;;;;7.13;3.38;;;;;;;-144.47;48.51;53096.41;5069258;28;20028;-64
2022/08/04 02:56:31;;;;;;;5.95;3.08;;;;;;;-144.47;48.67;53052.72;5067875;28;20055;-65
2022/08/04 02:59:04;;;;;;;9.05;3.28;;;;;;;-144.47;48.86;53084.50;5069260;28;20032;-66
2022/08/04 03:01:30;;;;;;;9.65;3.33;;;;;;;-144.47;48.98;53086.50;5068850;28;20212;-65
2022/08/04 03:04:22;;;;;;;9.18;2.97;;;;;;;-144.47;49.16;53054.72;5068325;28;20257;-69
2022/08/04 03:07:21;;;;;;;11.52;3.30;;;;;;;-144.47;49.27;53040.81;5066684;28;20035;-68
2022/08/04 03:10:24;;;;;;;7.35;3.42;;;;;;;-144.47;49.45;53060.66;5069751;28;20095;-66
2022/08/04 03:13:44;;;;;;;9.68;3.55;;;;;;;-144.47;49.63;53086.50;5068883;28;20106;-69
2022/08/04 03:16:12;;;;;;;9.15;2.72;;;;;;;-144.47;49.73;53084.50;4991772;28;20411;-68
2022/08/04 03:18:43;;;;;;;6.70;3.13;;;;;;;-144.47;49.53;53098.41;5053523;28;20024;-68
2022/08/04 03:21:27;;;;;;;6.25;3.05;;;;;;;-144.47;49.80;53042.78;5070077;28;20082;-68
2022/08/04 03:24:33;;;;;;;6.97;3.38;;;;;;;-144.47;49.85;53048.75;5064451;28;20016;-68
2022/08/04 03:27:29;;;;;;;16.25;4.25;;;;;;;-144.47;49.66;53062.66;5035107;28;20032;-67
2022/08/04 03:30:07;;;;;;;13.50;3.45;;;;;;;-144.47;49.53;53058.69;5059956;28;20029;-65
2022/08/04 03:33:16;;;;;;;16.38;3.38;;;;;;;-144.47;49.81;53054.72;5069358;28;20082;-66
2022/08/04 03:36:08;;;;;;;13.43;3.42;;;;;;;-144.47;49.90;53062.66;4989700;28;20027;-66
2022/08/04 03:38:55;;;;;;;7.15;3.60;;;;;;;-144.47;50.07;53084.50;5060947;28;20532;-68
2022/08/04 03:41:27;;;;;;;12.88;3.70;;;;;;;-144.47;50.08;53086.50;5068456;28;20032;-67
2022/08/04 03:44:17;;;;;;;32.03;4.55;;;;;;;-144.47;50.05;53082.53;5069391;28;20036;-65
2022/08/04 03:47:09;;;;;;;10.48;3.28;;;;;;;-144.47;50.30;53116.28;5068929;28;20075;-65
2022/08/04 03:50:04;;;;;;;17.88;4.28;;;;;;;-144.47;50.38;53048.75;5068632;28;20127;-65
2022/08/04 03:53:10;;;;;;;7.95;2.92;;;;;;;-144.47;50.67;53124.22;5068547;28;20521;-67
2022/08/04 03:55:57;;;;;;;24.23;4.25;;;;;;;-144.47;50.61;53084.50;5067695;28;20063;-66
2022/08/04 03:59:10;;;;;;;11.90;3.78;;;;;;;-144.47;50.65;53094.44;5066592;28;20031;-67
2022/08/04 04:01:57;;;;;;;6.97;3.30;;;;;;;-144.47;50.68;53096.41;5054375;28;20127;-65
2022/08/04 04:04:45;;;;;;;15.02;4.85;;;;;;;-144.47;50.45;53064.66;5067619;28;20047;-67
2022/08/04 04:07:48;;;;;;;23.55;3.55;;;;;;;-144.47;50.65;53098.41;5065805;28;20020;-65
2022/08/04 04:10:35;;;;;;;13.73;3.28;;;;;;;-144.47;50.72;53090.47;5067685;28;20547;-67
2022/08/04 04:13:14;;;;;;;9.48;3.40;;;;;;;-144.47;50.80;53078.53;5069130;28;20404;-67
2022/08/04 04:15:59;;;;;;;14.75;3.35;;;;;;;-144.47;50.77;53100.41;5067536;28;20020;-67
2022/08/04 04:18:55;;;;;;;15.85;3.67;;;;;;;-144.47;50.96;53092.44;5068221;28;20025;-67
2022/08/04 04:21:26;;;;;;;13.30;3.90;;;;;;;-144.47;51.02;53110.31;5069195;28;20059;-68
2022/08/04 04:24:28;;;;;;;10.23;3.63;;;;;;;-144.47;51.25;53106.34;5068432;28;20095;-69
2022/08/04 04:26:58;;;;;;;7.00;3.60;;;;;;;-144.47;51.62;53102.38;5068961;28;20027;-66
2022/08/04 04:29:42;;;;;;;14.65;4.70;;;;;;;-144.47;51.96;53074.56;5068540;28;20035;-65
2022/08/04 04:32:22;;;;;;;14.80;4.55;;;;;;;-144.47;52.10;53084.50;5069655;28;20029;-67
2022/08/04 04:35:29;;;;;;;11.05;4.28;;;;;;;-144.47;52.19;53122.25;5076185;28;20536;-65
2022/08/04 04:38:25;;;;;;;10.77;3.90;;;;;;;-144.47;52.64;53092.44;5065698;28;20039;-66
2022/08/04 04:41:07;;;;;;;9.02;3.75;;;;;;;-144.47;52.41;53106.34;5067685;28;20401;-66
2022/08/04 04:43:53;;;;;;;10.63;3.63;;;;;;;-144.47;52.44;53112.31;5066847;28;20114;-66
2022/08/04 04:46:34;;;;;;;13.63;4.55;;;;;;;-144.47;52.25;53090.47;5057618;28;20029;-67
2022/08/04 04:49:27;;;;;;;10.73;4.20;;;;;;;-144.47;51.86;53092.44;5047112;28;20025;-67
2022/08/04 04:52:22;;;;;;;11.05;3.72;;;;;;;-144.47;51.94;53096.41;5067091;28;20028;-66
2022/08/04 04:54:54;;;;;;;10.48;3.65;;;;;;;-144.47;51.29;53122.25;5068296;28;20051;-66
2022/08/04 04:57:25;;;;;;;12.82;4.07;;;;;;;-144.47;51.39;53076.56;5071937;28;20029;-74
2022/08/04 04:59:59;;;;;;;15.45;3.63;;;;;;;-144.47;51.28;53098.41;5069682;28;20025;-66
2022/08/04 05:02:45;;;;;;;132.38;21.77;;;;;;;-144.47;51.19;53058.69;5063008;28;20481;-64
2022/08/04 05:06:02;;;;;;;22.70;4.07;;;;;;;-144.47;50.53;53068.63;5071780;28;20547;-65
2022/08/04 05:08:55;;;;;;;12.63;3.75;;;;;;;-144.47;49.90;53046.75;5049893;28;20107;-66
2022/08/04 05:11:42;;;;;;;16.05;3.78;;;;;;;-144.47;49.30;53084.50;5070995;28;20596;-64
2022/08/04 05:14:19;;;;;;;22.23;4.07;;;;;;;-144.47;49.03;53104.38;5070728;28;20212;-66
2022/08/04 05:16:52;;;;;;;11.07;4.18;;;;;;;-144.47;48.60;53108.34;5070257;28;20111;-66
2022/08/04 05:19:29;;;;;;;16.65;3.38;;;;;;;-144.47;48.29;53056.69;5070440;28;20098;-68
2022/08/04 05:22:16;;;;;;;20.30;5.43;;;;;;;-144.47;48.01;53102.38;5066483;28;20052;-67
2022/08/04 05:24:45;;;;;;;13.18;3.67;;;;;;;-144.47;47.82;53076.56;5059818;28;20025;-68
2022/08/04 05:27:19;;;;;;;17.73;3.72;;;;;;;-144.47;47.73;53062.66;5050489;28;20029;-66
2022/08/04 05:29:53;;;;;;;14.82;3.70;;;;;;;-144.47;47.58;53048.75;5070204;28;20035;-68
2022/08/04 05:32:23;;;;;;;14.00;3.50;;;;;;;-144.47;47.30;53066.63;5069241;28;20020;-68
2022/08/04 05:35:02;;;;;;;15.40;3.60;;;;;;;-144.47;47.15;53068.63;5079313;28;20016;-67
2022/08/04 05:37:29;;;;;;;;;;;;;;;-144.47;47.21;53108.34;5069613;28;20067;-64
2022/08/04 05:40:02;;;;;;;19.08;3.38;;;;;;;-144.47;46.40;53094.44;5070847;28;19905;-65
2022/08/04 05:42:29;;;;;;;12.13;3.20;;;;;;;-144.47;46.23;53066.63;5070580;28;20016;-66
2022/08/04 05:44:56;;;;;;;17.58;3.80;;;;;;;-144.47;45.95;53076.56;5070692;28;20016;-64
2022/08/04 05:47:23;;;;;;;13.27;3.28;;;;;;;-144.47;45.80;53058.69;5069419;28;20070;-67
2022/08/04 05:49:49;;;;;;;23.63;5.10;;;;;;;-144.47;45.72;53054.72;5070445;28;20458;-65
2022/08/04 05:52:15;;;;;;;17.50;3.78;;;;;;;-144.47;45.41;53088.47;5069888;28;20036;-64
2022/08/04 05:54:41;;;;;;;25.45;3.72;;;;;;;-144.47;44.95;53072.59;5070623;28;20016;-64
2022/08/04 05:57:08;;;;;;;25.58;3.58;;;;;;;-144.47;44.98;53048.75;5067862;28;20020;-65
2022/08/04 05:59:39;;;;;;;13.60;4.65;;;;;;;-144.47;44.72;53070.59;5070017;28;20047;-64
2022/08/04 06:02:08;;;;;;;18.13;3.42;;;;;;;-144.47;44.51;53062.66;5069595;28;20638;-66
2022/08/04 06:04:38;;;;;;;14.25;4.75;;;;;;;-144.47;44.42;53026.91;5067741;28;20513;-65
2022/08/04 06:07:05;;;;;;;8.95;3.80;;;;;;;-144.47;44.38;53054.72;5069026;28;20059;-67
2022/08/04 06:09:31;;;;;;;9.93;5.03;;;;;;;-144.47;44.03;53094.44;5069739;28;20470;-65
2022/08/04 06:11:59;;;;;;;7.35;3.10;;;;;;;-144.47;44.02;53036.84;5069681;28;20043;-65
2022/08/04 06:14:27;;;;;;;9.95;3.60;;;;;;;-144.47;43.72;53044.78;5069436;28;20355;-66
2022/08/04 06:16:54;;;;;;;9.07;3.80;;;;;;;-144.47;43.59;53026.91;5068856;28;20141;-65
2022/08/04 06:19:23;;;;;;;8.48;3.95;;;;;;;-144.47;43.27;53040.81;5067701;28;20105;-66
2022/08/04 06:21:53;;;;;;;9.13;3.10;;;;;;;-144.47;42.57;53058.69;5068723;28;20026;-65
2022/08/04 06:24:23;;;;;;;15.32;4.25;;;;;;;-144.47;41.97;53016.97;5051469;28;20043;-64
2022/08/04 06:26:50;;;;;;;12.82;3.85;;;;;;;-144.47;41.92;53038.81;5067962;28;20028;-66
2022/08/04 06:29:33;;;;;;;11.55;3.20;;;;;;;-144.47;41.90;53062.66;5069882;28;20024;-65
2022/08/04 06:32:01;;;;;;;8.60;3.47;;;;;;;-144.47;41.71;52995.13;5068114;28;20397;-65
2022/08/04 06:34:28;;;;;;;8.18;3.30;;;;;;;-144.47;41.89;53050.75;5071045;28;20021;-66
2022/08/04 06:36:55;;;;;;;15.80;3.38;;;;;;;-144.47;41.65;53054.72;5068727;28;20109;-66
2022/08/04 06:39:23;;;;;;;11.73;3.90;;;;;;;-144.47;41.79;53028.88;5068786;28;20432;-64
2022/08/04 06:41:50;;;;;;;;;;;;;;;-144.47;41.53;53005.06;5068696;28;20052;-66
2022/08/04 06:44:17;;;;;;;8.23;3.67;;;;;;;-144.47;40.81;53022.94;5066565;28;20102;-66
2022/08/04 06:46:43;;;;;;;12.10;4.07;;;;;;;-144.47;40.82;53048.75;5050659;28;20175;-65
2022/08/04 06:49:10;;;;;;;14.90;3.50;;;;;;;-144.47;40.61;53026.91;5069579;28;20624;-66
2022/08/04 06:51:37;;;;;;;15.38;3.42;;;;;;;-144.47;40.80;53016.97;5070551;28;20032;-68
2022/08/04 06:54:03;;;;;;;11.50;3.58;;;;;;;-144.47;40.96;53048.75;5069099;28;20067;-66
2022/08/04 06:56:31;;;;;;;7.60;3.22;;;;;;;-144.47;40.84;53022.94;5068821;28;20024;-67
2022/08/04 06:58:59;;;;;;;12.60;6.00;;;;;;;-144.47;40.63;53064.66;5071017;28;20148;-64
2022/08/04 07:01:26;;;;;;;16.80;4.55;;;;;;;-144.47;40.74;53007.03;5070286;28;20024;-66
2022/08/04 07:03:52;;;;;;;7.63;3.78;;;;;;;-144.47;40.76;52983.22;5069848;28;20035;-64
2022/08/04 07:06:19;;;;;;;9.18;3.47;;;;;;;-144.47;40.69;53009.03;5070688;28;20068;-67
2022/08/04 07:08:45;;;;;;;17.65;3.88;;;;;;;-144.47;40.38;52997.09;5069218;28;20129;-68
2022/08/04 07:11:11;;;;;;;11.70;3.33;;;;;;;-144.47;40.23;53015.00;5067600;28;20043;-69
2022/08/04 07:13:39;;;;;;;8.48;3.15;;;;;;;-144.47;39.47;52979.22;5067726;28;20055;-67
2022/08/04 07:16:06;;;;;;;10.15;3.80;;;;;;;-144.47;39.53;53013.00;5068666;28;20087;-66
2022/08/04 07:18:31;;;;;;;13.45;3.70;;;;;;;-144.47;39.35;53015.00;5060511;28;20035;-68
2022/08/04 07:20:57;;;;;;;10.02;2.97;;;;;;;-144.47;39.54;53003.06;5064780;28;20064;-69
2022/08/04 07:23:24;;;;;;;12.80;3.17;;;;;;;-144.47;39.51;53016.97;5059503;28;20012;-70
2022/08/04 07:25:51;;;;;;;8.52;3.28;;;;;;;-144.47;39.13;53009.03;5060841;28;20025;-69
2022/08/04 07:28:18;;;;;;;10.60;3.20;;;;;;;-144.47;38.79;53020.94;5068519;28;20480;-68
2022/08/04 07:30:45;;;;;;;12.75;4.20;;;;;;;-144.47;38.71;52997.09;5064089;28;20207;-65
2022/08/04 07:33:12;;;;;;;13.77;3.40;;;;;;;-144.47;38.37;53028.88;5072986;28;20016;-65
2022/08/04 07:38:08;;;;;;;9.65;3.15;;;;;;;-144.47;37.59;53032.88;5065522;28;20113;-67
2022/08/04 07:40:35;;;;;;;15.88;3.58;;;;;;;-144.47;37.20;52997.09;5069737;28;20020;-65
2022/08/04 07:43:00;;;;;;;8.88;3.42;;;;;;;-144.47;37.45;53015.00;5067950;28;20032;-68
2022/08/04 07:45:26;;;;;;;8.65;4.00;;;;;;;-144.47;36.78;52981.22;5088051;28;20027;-69
2022/08/04 07:47:51;;;;;;;11.40;3.40;;;;;;;-144.47;36.98;53016.97;5087504;28;20457;-66
2022/08/04 07:50:19;;;;;;;11.13;3.22;;;;;;;-144.47;37.11;52979.22;5070155;28;20016;-66
2022/08/04 07:52:45;;;;;;;12.80;3.33;;;;;;;-144.47;37.49;52957.38;5063513;28;20073;-69
2022/08/04 07:55:11;;;;;;;12.00;3.45;;;;;;;-144.47;37.57;52959.38;5060862;28;20032;-71
2022/08/04 07:57:37;;;;;;;7.53;3.42;;;;;;;-144.47;37.45;52975.25;5059967;28;20028;-66
2022/08/04 08:00:07;;;;;;;9.73;3.72;;;;;;;-144.47;37.02;53005.06;5058883;28;20394;-67
2022/08/04 08:02:34;;;;;;;11.43;3.70;;;;;;;-144.47;36.88;52987.19;5059760;28;20036;-66
2022/08/04 08:05:01;;;;;;;21.77;4.47;;;;;;;-144.47;37.00;52963.34;5060512;28;20051;-68
2022/08/04 08:07:26;;;;;;;9.80;3.53;;;;;;;-144.47;36.74;52981.22;5060824;28;20107;-68
2022/08/04 08:09:52;;;;;;;12.35;3.55;;;;;;;-144.47;36.55;52993.13;5060355;28;20107;-66
2022/08/04 08:12:18;;;;;;;9.50;3.78;;;;;;;-144.47;36.42;52965.34;5061754;28;20023;-65
2022/08/04 08:14:44;;;;;;;12.10;3.42;;;;;;;-144.47;36.41;52975.25;5061464;28;20016;-65
2022/08/04 08:17:10;;;;;;;27.00;3.92;;;;;;;-144.47;36.21;52973.28;5066353;28;20020;-66
2022/08/04 08:19:35;;;;;;;12.70;2.83;;;;;;;-144.47;36.23;52965.34;5058085;28;20120;-65
2022/08/04 08:22:01;;;;;;;13.98;4.78;;;;;;;-144.47;36.08;52975.25;5064343;28;20020;-65
2022/08/04 08:24:28;;;;;;;12.32;3.85;;;;;;;-144.47;35.98;52961.34;5071438;28;20021;-66
2022/08/04 08:26:55;;;;;;;8.82;3.13;;;;;;;-144.47;35.91;52973.28;5068246;28;20020;-66
2022/08/04 08:29:22;;;;;;;13.07;3.03;;;;;;;-144.47;34.80;52969.31;5072431;28;20021;-67
2022/08/04 08:31:48;;;;;;;8.05;3.00;;;;;;;-144.47;34.89;52955.41;5072321;28;20063;-67
2022/08/04 08:34:13;;;;;;;15.13;4.15;;;;;;;-144.47;34.94;52953.41;5072230;28;20048;-69
2022/08/04 08:36:47;;;;;;;13.50;3.95;;;;;;;-144.47;34.46;52971.28;5071693;28;20027;-67
2022/08/04 08:39:30;;;;;;;8.85;3.20;;;;;;;-144.47;34.47;52911.69;5070496;28;20032;-68
2022/08/04 08:41:59;;;;;;;11.07;3.55;;;;;;;-144.47;34.46;52965.34;5052229;28;20055;-70
2022/08/04 08:44:48;;;;;;;;;;;;;;;-144.47;34.27;52961.34;5079327;28;20023;-67
2022/08/04 08:47:44;;;;;;;11.32;3.70;;;;;;;-144.47;34.02;52955.41;5073231;28;20274;-69
2022/08/04 08:50:16;;;;;;;13.45;3.10;;;;;;;-144.47;33.67;52899.78;5091396;28;20060;-70
2022/08/04 08:52:47;;;;;;;12.07;3.42;;;;;;;-144.47;33.48;52935.53;5089637;28;20642;-68
2022/08/04 08:55:25;;;;;;;9.23;2.53;;;;;;;-144.47;32.92;52947.47;5086949;28;20532;-68
2022/08/04 08:58:08;;;;;;;8.23;3.07;;;;;;;-144.47;32.94;52931.56;5068643;28;20024;-70
2022/08/04 09:01:19;;;;;;;27.35;2.92;;;;;;;-144.47;32.71;52899.78;5072295;28;20024;-67
2022/08/04 09:04:05;;;;;;;14.70;3.03;;;;;;;-144.47;32.76;52907.72;5069945;28;20051;-69
2022/08/04 09:06:46;;;;;;;8.13;2.45;;;;;;;-144.47;32.23;52911.69;5070508;28;20047;-67
2022/08/04 09:09:40;;;;;;;8.48;2.78;;;;;;;-144.47;32.21;52899.78;5071036;28;20039;-68
2022/08/04 09:12:17;;;;;;;21.10;3.00;;;;;;;-144.47;31.82;52913.69;5070873;28;20036;-69
2022/08/04 09:15:01;;;;;;;14.25;2.95;;;;;;;-144.47;31.91;52925.59;5071333;28;20566;-68
2022/08/04 09:17:32;;;;;;;8.40;3.10;;;;;;;-144.47;31.86;52937.53;5065884;28;20029;-67
2022/08/04 09:20:29;;;;;;;12.57;2.95;;;;;;;-144.47;31.03;52927.59;5071449;28;20170;-68
2022/08/04 09:23:06;;;;;;;11.02;2.38;;;;;;;-144.47;30.89;52875.94;5056902;28;20219;-67
2022/08/04 09:25:55;;;;;;;5.13;1.90;;;;;;;-144.47;30.78;52889.84;5071188;28;20035;-66
2022/08/04 09:28:25;;;;;;;10.68;2.50;;;;;;;-144.47;30.48;52899.78;5070517;28;20478;-65
2022/08/04 09:31:03;;;;;;;5.00;2.35;;;;;;;-144.47;29.97;52907.72;5071260;28;20109;-66
2022/08/04 09:33:37;;;;;;;8.32;2.25;;;;;;;-144.47;30.21;52913.69;5070257;28;20025;-67
2022/08/04 09:36:22;;;;;;;10.80;2.60;;;;;;;-144.47;30.07;52875.94;5070970;28;20044;-66
2022/08/04 09:39:08;;;;;;;6.50;2.03;;;;;;;-144.47;29.91;52923.63;5070037;28;20502;-66
2022/08/04 09:42:11;;;;;;;8.07;2.08;;;;;;;-144.47;29.65;52870.00;5070659;28;20024;-68
2022/08/04 09:44:47;;;;;;;4.50;1.65;;;;;;;-144.47;29.17;52852.13;5083806;28;20099;-67
2022/08/04 09:47:38;;;;;;;22.70;2.90;;;;;;;-144.47;28.93;52899.78;5090524;28;20031;-66
2022/08/04 09:50:22;;;;;;;12.43;2.58;;;;;;;-144.47;28.97;52881.91;5087553;28;20020;-68
2022/08/04 09:53:12;;;;;;;11.30;2.00;;;;;;;-144.47;28.74;52903.75;5070607;28;20021;-67
2022/08/04 09:55:49;;;;;;;3.67;1.92;;;;;;;-144.47;28.85;52879.94;5060250;28;20032;-67
2022/08/04 09:58:24;;;;;;;6.80;1.57;;;;;;;-144.47;27.93;52871.97;5070617;28;20066;-67
2022/08/04 10:00:59;;;;;;;5.90;1.85;;;;;;;-144.47;28.12;52881.91;5070729;28;20043;-68
2022/08/04 10:03:30;;;;;;;7.93;1.83;;;;;;;-144.47;28.24;52871.97;5069355;28;20426;-65
2022/08/04 10:06:32;;;;;;;6.30;1.73;;;;;;;-144.47;27.62;52877.94;5069894;28;20040;-67
2022/08/04 10:09:13;;;;;;;8.70;1.75;;;;;;;-144.47;27.61;52897.81;5058701;28;20120;-67
2022/08/04 10:12:02;;;;;;;10.27;1.95;;;;;;;-144.47;27.46;52891.84;5060296;28;20040;-66
2022/08/04 10:14:39;;;;;;;5.47;1.80;;;;;;;-144.47;27.26;52820.34;5068964;28;20029;-66
2022/08/04 10:17:07;;;;;;;3.10;1.80;;;;;;;-144.47;27.00;52881.91;5051218;28;20021;-66
2022/08/04 10:19:39;;;;;;;7.88;1.48;;;;;;;-144.47;26.58;52897.81;5070049;28;20115;-66
2022/08/04 10:22:10;;;;;;;9.63;1.80;;;;;;;-144.47;26.58;52848.16;5068109;28;20163;-66
2022/08/04 10:24:55;;;;;;;7.15;2.20;;;;;;;-144.47;26.63;52850.13;5068707;28;20025;-66
2022/08/04 10:27:27;;;;;;;7.53;1.95;;;;;;;-144.47;26.45;52871.97;5068054;28;20111;-65
2022/08/04 10:30:10;;;;;;;12.50;2.42;;;;;;;-144.47;26.78;52838.22;5070336;28;20024;-66
2022/08/04 10:33:11;;;;;;;11.55;2.72;;;;;;;-144.47;26.58;52856.09;5059624;28;20032;-65
2022/08/04 10:36:00;;;;;;;6.70;2.25;;;;;;;-144.47;26.51;52844.19;5064080;28;20039;-66
2022/08/04 10:38:32;;;;;;;18.45;2.55;;;;;;;-144.47;26.63;52883.91;5055988;28;20033;-68
2022/08/04 10:41:05;;;;;;;5.50;1.70;;;;;;;-144.47;26.48;52868.00;5073037;28;20119;-70
2022/08/04 10:43:34;;;;;;;9.07;1.90;;;;;;;-144.47;26.50;52828.28;5070577;28;20035;-72
2022/08/04 10:46:16;;;;;;;5.78;1.80;;;;;;;-144.47;26.42;52846.16;5076368;28;20028;-70
2022/08/04 10:48:53;;;;;;;10.05;2.08;;;;;;;-144.47;26.14;52832.25;5088684;28;20024;-68
2022/08/04 10:51:43;;;;;;;9.75;1.65;;;;;;;-144.47;26.18;52820.34;5076241;28;20039;-69
2022/08/04 10:54:14;;;;;;;7.72;2.03;;;;;;;-144.47;26.06;52814.38;5060432;28;20023;-69
2022/08/04 10:56:49;;;;;;;6.72;2.05;;;;;;;-144.47;26.01;52840.19;5065824;28;20042;-71
2022/08/04 10:59:44;;;;;;;6.47;2.17;;;;;;;-144.47;25.46;52838.22;5066015;28;20475;-65
2022/08/04 11:02:39;;;;;;;7.97;2.08;;;;;;;-144.47;25.73;52840.19;5056175;28;20390;-68
2022/08/04 11:05:14;;;;;;;6.53;2.08;;;;;;;-144.47;25.44;52820.34;5068092;28;20086;-69
2022/08/04 11:07:44;;;;;;;8.18;2.10;;;;;;;-144.47;25.76;52824.31;5067782;28;20415;-69
2022/08/04 11:10:11;;;;;;;6.32;2.10;;;;;;;-144.47;25.58;52826.31;5064853;28;20027;-69
2022/08/04 11:12:39;;;;;;;9.73;2.00;;;;;;;-144.47;25.28;52832.25;5064643;28;20041;-68
2022/08/04 11:15:25;;;;;;;8.52;1.80;;;;;;;-144.47;25.04;52816.38;5044621;28;20111;-66
2022/08/04 11:17:57;;;;;;;4.72;1.95;;;;;;;-144.47;25.20;52842.19;5070782;28;20032;-67
2022/08/04 11:20:29;;;;;;;14.00;2.10;;;;;;;-144.47;25.21;52812.41;5070510;28;20051;-69
2022/08/04 11:23:09;;;;;;;9.60;1.80;;;;;;;-144.47;24.84;52824.31;5056225;28;20447;-68
2022/08/04 11:25:35;;;;;;;7.05;1.70;;;;;;;-144.47;24.89;52808.44;5067404;28;20028;-69
2022/08/04 11:28:34;;;;;;;9.00;1.58;;;;;;;-144.47;24.72;52816.38;5069048;28;20390;-67
2022/08/04 11:31:06;;;;;;;6.35;2.63;;;;;;;-144.47;24.49;52824.31;5055444;28;20097;-67
2022/08/04 11:34:09;;;;;;;8.13;1.77;;;;;;;-144.47;24.60;52810.41;5066995;28;20052;-68
2022/08/04 11:36:50;;;;;;;11.68;1.88;;;;;;;-144.47;24.50;52800.47;5066434;28;20569;-66
2022/08/04 11:39:32;;;;;;;5.60;1.67;;;;;;;-144.47;24.52;52828.28;5066979;28;20107;-69
2022/08/04 11:42:07;;;;;;;10.88;2.05;;;;;;;-144.47;24.68;52776.66;5067583;28;20107;-67
2022/08/04 11:44:46;;;;;;;16.27;2.85;;;;;;;-144.47;24.46;52814.38;5066151;28;20043;-68
2022/08/04 11:47:30;;;;;;;3.85;1.60;;;;;;;-144.47;24.36;52800.47;5068473;28;20032;-67
2022/08/04 11:50:22;;;;;;;11.23;1.70;;;;;;;-144.47;24.38;52792.53;5069485;28;20031;-69
2022/08/04 11:52:52;;;;;;;10.48;2.00;;;;;;;-144.47;24.15;52808.44;5068264;28;20021;-67
2022/08/04 11:55:20;;;;;;;5.35;1.50;;;;;;;-144.47;24.20;52830.28;5069005;28;20012;-66
2022/08/04 11:57:46;;;;;;;4.25;1.40;;;;;;;-144.47;24.25;52816.38;5067652;28;20020;-71
2022/08/04 12:00:14;;;;;;;7.68;1.63;;;;;;;-144.47;24.54;52772.69;5068259;28;20036;-69